Time;durP1;ratioP1;P1;durP2;ratioP2;P2;SDS_P1;SDS_P2;PMS_P1;PMS_P2;Temp;Humidity;BMP_temperature;BMP_pressure;BME280_temperature;BME280_humidity;BME280_pressure;Samples;Min_cycle;Max_cycle;Signal;HPM_P1;HPM_P2
2023/04/05 00:00:57;;;;;;;2.03;1.50;;;;;;;;;;5095255;28;20032;-78
2023/04/05 00:03:22;;;;;;;1.50;1.40;;;;;;;;;;5077306;28;20107;-77
2023/04/05 00:05:48;;;;;;;2.28;1.40;;;;;;;;;;5060284;28;20475;-78
2023/04/05 00:08:22;;;;;;;1.70;1.50;;;;;;;;;;5095321;28;20051;-77
2023/04/05 00:10:48;;;;;;;1.52;1.42;;;;;;;;;;5095187;28;20032;-77
2023/04/05 00:13:14;;;;;;;1.50;1.40;;;;;;;;;;5077001;28;20024;-78
2023/04/05 00:15:39;;;;;;;2.17;1.30;;;;;;;;;;5077397;28;20030;-78
2023/04/05 00:18:05;;;;;;;1.40;1.30;;;;;;;;;;5076772;28;20081;-77
2023/04/05 00:20:30;;;;;;;1.42;1.20;;;;;;;;;;5076775;28;20039;-77
2023/04/05 00:22:56;;;;;;;2.05;1.30;;;;;;;;;;5095112;28;20043;-77
2023/04/05 00:25:21;;;;;;;1.65;1.50;;;;;;;;;;5095292;28;20032;-77
2023/04/05 00:27:47;;;;;;;1.70;1.40;;;;;;;;;;5095016;28;20024;-78
2023/04/05 00:30:19;;;;;;;1.50;1.40;;;;;;;;;;5094783;28;20024;-77
2023/04/05 00:32:46;;;;;;;1.40;1.30;;;;;;;;;;5094636;28;20031;-77
2023/04/05 00:35:12;;;;;;;2.15;1.48;;;;;;;;;;5094642;28;20107;-77
2023/04/05 00:37:37;;;;;;;1.98;1.50;;;;;;;;;;5094802;28;20441;-77
2023/04/05 00:40:03;;;;;;;1.80;1.38;;;;;;;;;;5076308;28;20043;-77
2023/04/05 00:42:29;;;;;;;2.45;1.50;;;;;;;;;;5058795;28;20031;-77
2023/04/05 00:44:54;;;;;;;2.10;1.58;;;;;;;;;;5076293;28;20032;-77
2023/04/05 00:47:20;;;;;;;1.55;1.40;;;;;;;;;;5094565;28;20031;-77
2023/04/05 00:49:45;;;;;;;1.80;1.60;;;;;;;;;;5076600;28;20016;-78
2023/04/05 00:52:11;;;;;;;1.73;1.33;;;;;;;;;;5075951;28;20423;-77
2023/04/05 00:54:38;;;;;;;1.38;1.15;;;;;;;;;;5094761;28;20346;-78
2023/04/05 00:57:05;;;;;;;1.98;1.50;;;;;;;;;;5076459;28;20098;-76
2023/04/05 00:59:31;;;;;;;1.45;1.15;;;;;;;;;;5076171;28;20107;-77
2023/04/05 01:02:03;;;;;;;1.83;1.40;;;;;;;;;;5094440;28;20115;-78
2023/04/05 01:04:30;;;;;;;1.55;1.35;;;;;;;;;;5059379;28;20494;-78
2023/04/05 01:07:06;;;;;;;1.38;1.27;;;;;;;;;;5076017;28;20039;-78
2023/04/05 01:09:49;;;;;;;2.60;1.50;;;;;;;;;;5075914;28;20113;-77
2023/04/05 01:12:17;;;;;;;2.03;1.40;;;;;;;;;;5076239;28;20424;-77
2023/04/05 01:14:50;;;;;;;1.67;1.38;;;;;;;;;;5075983;28;20020;-77
2023/04/05 01:17:23;;;;;;;1.63;1.40;;;;;;;;;;5059197;28;20085;-77
2023/04/05 01:19:52;;;;;;;1.73;1.45;;;;;;;;;;5076055;28;20040;-76
2023/04/05 01:22:42;;;;;;;2.05;1.30;;;;;;;;;;5076121;28;20020;-78
2023/04/05 01:25:18;;;;;;;1.88;1.30;;;;;;;;;;5093523;28;20102;-78
2023/04/05 01:28:08;;;;;;;2.20;1.30;;;;;;;;;;5093416;28;20043;-77
2023/04/05 01:30:36;;;;;;;1.98;1.50;;;;;;;;;;5093565;28;20028;-78
2023/04/05 01:33:06;;;;;;;1.50;1.30;;;;;;;;;;5075690;28;20027;-77
2023/04/05 01:36:00;;;;;;;1.85;1.30;;;;;;;;;;5075572;28;20028;-77
2023/04/05 01:38:27;;;;;;;2.27;1.43;;;;;;;;;;5092796;28;20032;-78
2023/04/05 01:40:53;;;;;;;1.55;1.40;;;;;;;;;;5075499;28;20028;-78
2023/04/05 01:43:18;;;;;;;2.38;1.40;;;;;;;;;;5075316;28;20112;-78
2023/04/05 01:45:45;;;;;;;1.55;1.25;;;;;;;;;;5058717;28;20036;-78
2023/04/05 01:48:11;;;;;;;1.95;1.50;;;;;;;;;;5075370;28;20028;-77
2023/04/05 01:50:36;;;;;;;1.48;1.38;;;;;;;;;;5058588;28;20329;-78
2023/04/05 01:53:02;;;;;;;2.20;1.38;;;;;;;;;;5075153;28;20071;-78
2023/04/05 01:55:27;;;;;;;2.58;1.25;;;;;;;;;;5093526;28;20043;-77
2023/04/05 01:57:55;;;;;;;1.45;1.30;;;;;;;;;;5075283;28;20028;-78
2023/04/05 02:00:21;;;;;;;1.92;1.40;;;;;;;;;;5056429;28;20036;-78
2023/04/05 02:02:46;;;;;;;1.50;1.40;;;;;;;;;;5058451;28;20115;-78
2023/04/05 02:05:11;;;;;;;1.60;1.50;;;;;;;;;;5093505;28;20475;-78
2023/04/05 02:07:37;;;;;;;1.98;1.65;;;;;;;;;;5075457;28;20032;-78
2023/04/05 02:10:03;;;;;;;1.50;1.40;;;;;;;;;;5075134;28;20059;-78
2023/04/05 02:12:29;;;;;;;2.08;1.70;;;;;;;;;;5059202;28;20036;-78
2023/04/05 02:14:54;;;;;;;1.48;1.38;;;;;;;;;;5074879;28;20031;-78
2023/04/05 02:17:20;;;;;;;1.80;1.40;;;;;;;;;;5074947;28;20024;-77
2023/04/05 02:19:46;;;;;;;1.40;1.25;;;;;;;;;;5095452;28;20038;-77
2023/04/05 02:22:12;;;;;;;1.70;1.50;;;;;;;;;;5097210;28;20106;-77
2023/04/05 02:24:37;;;;;;;2.38;1.40;;;;;;;;;;5062391;28;20032;-77
2023/04/05 02:27:03;;;;;;;1.58;1.35;;;;;;;;;;5097368;28;20075;-77
2023/04/05 02:29:30;;;;;;;1.90;1.60;;;;;;;;;;5039708;28;20020;-77
2023/04/05 02:31:56;;;;;;;4.43;1.80;;;;;;;;;;5075030;28;20028;-78
2023/04/05 02:34:21;;;;;;;2.20;1.42;;;;;;;;;;5051693;28;20110;-77
2023/04/05 02:36:51;;;;;;;1.80;1.50;;;;;;;;;;5050075;28;20037;-79
2023/04/05 02:39:17;;;;;;;1.75;1.52;;;;;;;;;;5076712;28;20021;-77
2023/04/05 02:41:42;;;;;;;2.10;1.60;;;;;;;;;;5058567;28;20391;-77
2023/04/05 02:44:08;;;;;;;2.50;1.55;;;;;;;;;;5076849;28;20032;-77
2023/04/05 02:46:33;;;;;;;2.55;1.40;;;;;;;;;;5076442;28;20545;-77
2023/04/05 02:48:58;;;;;;;2.40;1.52;;;;;;;;;;5076349;28;20055;-77
2023/04/05 02:51:25;;;;;;;1.98;1.42;;;;;;;;;;5076560;28;20032;-79
2023/04/05 02:53:51;;;;;;;1.48;1.38;;;;;;;;;;5058590;28;20518;-77
2023/04/05 02:56:17;;;;;;;2.08;1.60;;;;;;;;;;5076289;28;20398;-79
2023/04/05 02:58:43;;;;;;;1.67;1.55;;;;;;;;;;5058742;28;21083;-79
2023/04/05 03:01:08;;;;;;;2.17;1.63;;;;;;;;;;5058187;28;20115;-79
2023/04/05 03:03:34;;;;;;;2.47;1.48;;;;;;;;;;5076213;28;20476;-79
2023/04/05 03:06:12;;;;;;;2.15;1.85;;;;;;;;;;5058530;28;20054;-79
2023/04/05 03:08:42;;;;;;;1.95;1.50;;;;;;;;;;5059605;28;20415;-79
2023/04/05 03:11:09;;;;;;;1.85;1.60;;;;;;;;;;5058949;28;20105;-79
2023/04/05 03:13:34;;;;;;;1.55;1.42;;;;;;;;;;5058438;28;20021;-77
2023/04/05 03:16:01;;;;;;;1.65;1.55;;;;;;;;;;5058092;28;20031;-78
2023/04/05 03:18:28;;;;;;;1.70;1.55;;;;;;;;;;5058061;28;20104;-78
2023/04/05 03:20:55;;;;;;;3.05;1.40;;;;;;;;;;5058289;28;20433;-78
2023/04/05 03:23:25;;;;;;;2.38;1.75;;;;;;;;;;5058170;28;20024;-78
2023/04/05 03:25:58;;;;;;;2.20;1.83;;;;;;;;;;5058746;28;20463;-78
2023/04/05 03:28:24;;;;;;;2.05;1.80;;;;;;;;;;5075710;28;20028;-78
2023/04/05 03:30:50;;;;;;;2.30;1.60;;;;;;;;;;5074404;28;20537;-78
2023/04/05 03:33:16;;;;;;;2.22;1.63;;;;;;;;;;5057666;28;20029;-78
2023/04/05 03:35:41;;;;;;;1.60;1.50;;;;;;;;;;5057777;28;20036;-78
2023/04/05 03:38:07;;;;;;;2.65;1.58;;;;;;;;;;5057518;28;20043;-78
2023/04/05 03:40:32;;;;;;;1.50;1.40;;;;;;;;;;5075382;28;20032;-78
2023/04/05 03:42:57;;;;;;;2.47;1.48;;;;;;;;;;5057737;28;20024;-78
2023/04/05 03:45:24;;;;;;;3.63;1.77;;;;;;;;;;5058610;28;20125;-78
2023/04/05 03:47:49;;;;;;;3.13;1.33;;;;;;;;;;5057548;28;20024;-79
2023/04/05 03:50:14;;;;;;;2.60;1.75;;;;;;;;;;5040784;28;20032;-79
2023/04/05 03:52:40;;;;;;;2.60;1.77;;;;;;;;;;5084550;28;20101;-79
2023/04/05 03:55:06;;;;;;;9.57;1.60;;;;;;;;;;5061488;28;20030;-79
2023/04/05 03:57:32;;;;;;;1.90;1.70;;;;;;;;;;5094625;28;20028;-80
2023/04/05 03:59:57;;;;;;;2.00;1.67;;;;;;;;;;5094148;28;20078;-80
2023/04/05 04:02:23;;;;;;;3.38;1.52;;;;;;;;;;5095945;28;20123;-79
2023/04/05 04:04:48;;;;;;;4.18;1.92;;;;;;;;;;5077501;28;20474;-79
2023/04/05 04:07:14;;;;;;;4.80;1.50;;;;;;;;;;5095833;28;20058;-80
2023/04/05 04:09:40;;;;;;;3.10;1.50;;;;;;;;;;5094654;28;20496;-79
2023/04/05 04:12:05;;;;;;;3.38;1.40;;;;;;;;;;5095901;28;20039;-78
2023/04/05 04:14:33;;;;;;;2.10;1.55;;;;;;;;;;5096132;28;20370;-79
2023/04/05 04:16:59;;;;;;;5.65;1.70;;;;;;;;;;5069753;28;20025;-80
2023/04/05 04:19:31;;;;;;;2.85;1.60;;;;;;;;;;5095132;28;20032;-80
2023/04/05 04:21:57;;;;;;;1.88;1.50;;;;;;;;;;5094137;28;20032;-79
2023/04/05 04:24:25;;;;;;;1.88;1.60;;;;;;;;;;5095368;28;20050;-78
2023/04/05 04:26:53;;;;;;;3.42;1.70;;;;;;;;;;5095226;28;20028;-79
2023/04/05 04:29:18;;;;;;;2.38;1.70;;;;;;;;;;5095197;28;20028;-79
2023/04/05 04:31:48;;;;;;;1.85;1.60;;;;;;;;;;5076154;28;20101;-81
2023/04/05 04:34:17;;;;;;;2.45;1.75;;;;;;;;;;5093423;28;20411;-81
2023/04/05 04:36:45;;;;;;;5.00;1.73;;;;;;;;;;5093046;28;20028;-78
2023/04/05 04:39:12;;;;;;;8.68;1.92;;;;;;;;;;5094182;28;20028;-78
2023/04/05 04:41:43;;;;;;;4.60;2.05;;;;;;;;;;5093936;28;20516;-78
2023/04/05 04:44:13;;;;;;;3.70;1.88;;;;;;;;;;5093069;28;20031;-77
2023/04/05 04:46:42;;;;;;;2.97;1.70;;;;;;;;;;5076533;28;20020;-77
2023/04/05 04:49:08;;;;;;;4.10;2.10;;;;;;;;;;5093977;28;20179;-79
2023/04/05 04:51:36;;;;;;;4.60;2.03;;;;;;;;;;5093126;28;20082;-84
2023/04/05 04:54:02;;;;;;;5.28;2.10;;;;;;;;;;5092925;28;20561;-84
2023/04/05 04:56:27;;;;;;;6.63;2.58;;;;;;;;;;5059240;28;20123;-82
2023/04/05 04:58:55;;;;;;;14.32;3.10;;;;;;;;;;5093869;28;20063;-80
2023/04/05 05:01:21;;;;;;;10.50;2.70;;;;;;;;;;5092509;28;20028;-82
2023/04/05 05:03:47;;;;;;;4.35;2.30;;;;;;;;;;5075596;28;20071;-80
2023/04/05 05:06:16;;;;;;;7.43;2.58;;;;;;;;;;5092158;28;20039;-80
2023/04/05 05:08:41;;;;;;;5.50;2.17;;;;;;;;;;5093544;28;20024;-80
2023/04/05 05:11:06;;;;;;;5.60;2.42;;;;;;;;;;5075522;28;20117;-80
2023/04/05 05:13:32;;;;;;;4.57;2.03;;;;;;;;;;5075515;28;20130;-81
2023/04/05 05:15:59;;;;;;;5.63;2.50;;;;;;;;;;5075227;28;20514;-81
2023/04/05 05:18:24;;;;;;;4.18;2.13;;;;;;;;;;5075176;28;20497;-81
2023/04/05 05:20:51;;;;;;;5.32;2.53;;;;;;;;;;5092143;28;20032;-81
2023/04/05 05:23:16;;;;;;;10.23;2.25;;;;;;;;;;5075449;28;20032;-81
2023/04/05 05:25:42;;;;;;;4.70;2.20;;;;;;;;;;5092172;28;20043;-82
2023/04/05 05:28:07;;;;;;;2.88;1.95;;;;;;;;;;5075378;28;20031;-81
2023/04/05 05:30:33;;;;;;;6.30;2.30;;;;;;;;;;5093327;28;20028;-82
2023/04/05 05:33:00;;;;;;;8.38;2.10;;;;;;;;;;5092159;28;20028;-82
2023/04/05 05:35:26;;;;;;;3.47;2.03;;;;;;;;;;5092287;28;20031;-82
2023/04/05 05:37:51;;;;;;;2.95;2.00;;;;;;;;;;5075438;28;20028;-80
2023/04/05 05:40:17;;;;;;;5.72;2.20;;;;;;;;;;5074756;28;20081;-82
2023/04/05 05:42:42;;;;;;;4.28;2.03;;;;;;;;;;5087534;28;20094;-81
2023/04/05 05:45:08;;;;;;;20.67;4.28;;;;;;;;;;5075413;28;20077;-84
2023/04/05 05:47:34;;;;;;;5.53;2.00;;;;;;;;;;5092136;28;20047;-81
2023/04/05 05:50:00;;;;;;;7.72;2.30;;;;;;;;;;5093279;28;20024;-81
2023/04/05 05:52:25;;;;;;;3.17;1.73;;;;;;;;;;5092889;28;20126;-82
2023/04/05 05:54:51;;;;;;;8.32;2.08;;;;;;;;;;5091276;28;20024;-80
2023/04/05 05:57:16;;;;;;;1.90;1.73;;;;;;;;;;5091874;28;20036;-83
2023/04/05 05:59:42;;;;;;;2.50;1.70;;;;;;;;;;5092032;28;20024;-83
2023/04/05 06:02:07;;;;;;;4.30;1.95;;;;;;;;;;5092250;28;20090;-82
2023/04/05 06:04:33;;;;;;;1.92;1.70;;;;;;;;;;5093412;28;20552;-82
2023/04/05 06:06:59;;;;;;;2.47;1.70;;;;;;;;;;5080721;28;20028;-83
2023/04/05 06:09:25;;;;;;;4.85;1.70;;;;;;;;;;5072046;28;20052;-79
2023/04/05 06:11:51;;;;;;;4.38;1.70;;;;;;;;;;5082819;28;20028;-80
2023/04/05 06:14:17;;;;;;;3.80;1.80;;;;;;;;;;5092188;28;20506;-79
2023/04/05 06:16:42;;;;;;;2.53;1.70;;;;;;;;;;5083274;28;20068;-79
2023/04/05 06:19:08;;;;;;;11.43;2.00;;;;;;;;;;5087880;28;20024;-79
2023/04/05 06:21:33;;;;;;;2.35;1.67;;;;;;;;;;5090885;28;20040;-80
2023/04/05 06:23:58;;;;;;;4.47;1.88;;;;;;;;;;5091689;28;20469;-79
2023/04/05 06:26:27;;;;;;;2.30;1.60;;;;;;;;;;5074778;28;20028;-81
2023/04/05 06:28:53;;;;;;;2.60;1.50;;;;;;;;;;5088648;28;20021;-78
2023/04/05 06:31:26;;;;;;;2.40;1.58;;;;;;;;;;5076360;28;20092;-80
2023/04/05 06:33:51;;;;;;;4.57;2.05;;;;;;;;;;5091192;28;20060;-84
2023/04/05 06:36:16;;;;;;;3.53;1.90;;;;;;;;;;5091567;28;20514;-83
2023/04/05 06:38:42;;;;;;;4.10;1.55;;;;;;;;;;5074564;28;20039;-80
2023/04/05 06:41:07;;;;;;;1.65;1.45;;;;;;;;;;5092304;28;20118;-79
2023/04/05 06:43:33;;;;;;;1.88;1.27;;;;;;;;;;5074565;28;20040;-79
2023/04/05 06:45:58;;;;;;;2.20;1.48;;;;;;;;;;5060542;28;20064;-79
2023/04/05 06:48:24;;;;;;;1.50;1.38;;;;;;;;;;5057875;28;20161;-79
2023/04/05 06:50:59;;;;;;;3.10;1.65;;;;;;;;;;5090631;28;20535;-77
2023/04/05 06:53:26;;;;;;;3.60;1.70;;;;;;;;;;5038376;28;20128;-82
2023/04/05 06:55:56;;;;;;;5.10;1.95;;;;;;;;;;5054881;28;20410;-80
2023/04/05 06:58:22;;;;;;;2.35;1.50;;;;;;;;;;5054744;28;20040;-83
2023/04/05 07:00:48;;;;;;;4.85;1.63;;;;;;;;;;5070887;28;20025;-82
2023/04/05 07:03:13;;;;;;;2.13;1.67;;;;;;;;;;5090071;28;20028;-81
2023/04/05 07:05:39;;;;;;;1.77;1.50;;;;;;;;;;5094772;28;20479;-82
2023/04/05 07:08:04;;;;;;;3.03;1.60;;;;;;;;;;5096780;28;20032;-81
2023/04/05 07:10:30;;;;;;;3.03;1.40;;;;;;;;;;5093710;28;20489;-83
2023/04/05 07:12:55;;;;;;;1.98;1.50;;;;;;;;;;5074888;28;20414;-81
2023/04/05 07:15:21;;;;;;;4.70;1.85;;;;;;;;;;5075158;28;20418;-80
2023/04/05 07:17:46;;;;;;;6.88;1.90;;;;;;;;;;5076447;28;20075;-85
2023/04/05 07:20:11;;;;;;;4.32;1.50;;;;;;;;;;5076987;28;20025;-80
2023/04/05 07:22:37;;;;;;;3.47;1.92;;;;;;;;;;5088728;28;20032;-82
2023/04/05 07:25:02;;;;;;;2.58;1.70;;;;;;;;;;5095019;28;20028;-80
2023/04/05 07:27:31;;;;;;;2.28;1.75;;;;;;;;;;5096302;28;20498;-83
2023/04/05 07:29:56;;;;;;;3.83;1.50;;;;;;;;;;5096876;28;20028;-83
2023/04/05 07:32:21;;;;;;;2.97;2.05;;;;;;;;;;5095668;28;20062;-82
2023/04/05 07:34:47;;;;;;;5.45;1.70;;;;;;;;;;5077929;28;20073;-79
2023/04/05 07:37:12;;;;;;;2.83;1.73;;;;;;;;;;5095762;28;20397;-82
2023/04/05 07:39:38;;;;;;;2.25;1.63;;;;;;;;;;5095626;28;20032;-83
2023/04/05 07:42:04;;;;;;;6.97;1.85;;;;;;;;;;5094187;28;20119;-82
2023/04/05 07:44:29;;;;;;;2.50;1.70;;;;;;;;;;5095411;28;20081;-83
2023/04/05 07:46:55;;;;;;;2.85;1.65;;;;;;;;;;5073103;28;20060;-86
2023/04/05 07:49:26;;;;;;;2.17;1.70;;;;;;;;;;5074392;28;20052;-81
2023/04/05 07:51:56;;;;;;;2.08;1.70;;;;;;;;;;5075530;28;20551;-79
2023/04/05 07:54:22;;;;;;;5.25;1.90;;;;;;;;;;5074798;28;20032;-81
2023/04/05 07:56:50;;;;;;;2.17;1.58;;;;;;;;;;5057430;28;20028;-81
2023/04/05 07:59:16;;;;;;;4.90;1.50;;;;;;;;;;5058105;28;20049;-81
2023/04/05 08:01:42;;;;;;;3.72;1.98;;;;;;;;;;5057712;28;20031;-81
2023/04/05 08:04:07;;;;;;;5.88;1.58;;;;;;;;;;5058054;28;20485;-83
2023/04/05 08:06:32;;;;;;;1.75;1.45;;;;;;;;;;5057548;28;20434;-82
2023/04/05 08:08:58;;;;;;;1.83;1.60;;;;;;;;;;5076654;28;20051;-82
2023/04/05 08:11:24;;;;;;;2.05;1.63;;;;;;;;;;5057743;28;20459;-81
2023/04/05 08:13:51;;;;;;;2.38;1.42;;;;;;;;;;5075095;28;20040;-81
2023/04/05 08:16:16;;;;;;;2.70;1.45;;;;;;;;;;5074312;28;20498;-81
2023/04/05 08:18:41;;;;;;;3.17;1.75;;;;;;;;;;5057145;28;20075;-82
2023/04/05 08:21:07;;;;;;;10.00;1.83;;;;;;;;;;5057424;28;20424;-81
2023/04/05 08:23:32;;;;;;;3.42;1.55;;;;;;;;;;5074847;28;20043;-82
2023/04/05 08:25:58;;;;;;;2.17;1.70;;;;;;;;;;5075399;28;20029;-82
2023/04/05 08:28:23;;;;;;;3.10;1.80;;;;;;;;;;5040567;28;20033;-81
2023/04/05 08:30:53;;;;;;;2.72;1.60;;;;;;;;;;5057213;28;20025;-82
2023/04/05 08:33:18;;;;;;;4.22;1.58;;;;;;;;;;5040214;28;20121;-82
2023/04/05 08:35:44;;;;;;;2.42;1.45;;;;;;;;;;5074565;28;20116;-82
2023/04/05 08:38:11;;;;;;;1.88;1.48;;;;;;;;;;5040020;28;20051;-81
2023/04/05 08:40:44;;;;;;;4.53;1.75;;;;;;;;;;5057044;28;20150;-82
2023/04/05 08:43:12;;;;;;;;;;;;;;;;;;5057082;28;20028;-81
2023/04/05 08:45:43;;;;;;;7.90;1.60;;;;;;;;;;5039966;28;19974;-81
2023/04/05 08:48:08;;;;;;;2.88;1.80;;;;;;;;;;5074392;28;20025;-81
2023/04/05 08:50:34;;;;;;;3.45;1.60;;;;;;;;;;5056436;28;20025;-82
2023/04/05 08:52:59;;;;;;;2.35;1.60;;;;;;;;;;5074700;28;20036;-81
2023/04/05 08:55:25;;;;;;;3.67;1.85;;;;;;;;;;5074110;28;20123;-81
2023/04/05 08:57:53;;;;;;;3.85;1.60;;;;;;;;;;5074441;28;20032;-82
2023/04/05 09:00:18;;;;;;;2.30;1.55;;;;;;;;;;5074199;28;20033;-81
2023/04/05 09:02:47;;;;;;;4.70;1.60;;;;;;;;;;5039582;28;20446;-82
2023/04/05 09:05:14;;;;;;;1.88;1.60;;;;;;;;;;5074318;28;20025;-81
2023/04/05 09:07:40;;;;;;;2.22;1.52;;;;;;;;;;5056066;28;20531;-82
2023/04/05 09:10:06;;;;;;;1.92;1.58;;;;;;;;;;5056057;28;20028;-81
2023/04/05 09:12:34;;;;;;;2.10;1.40;;;;;;;;;;5056194;28;20502;-82
2023/04/05 09:15:00;;;;;;;2.15;1.45;;;;;;;;;;5056492;28;20024;-79
2023/04/05 09:17:27;;;;;;;1.85;1.70;;;;;;;;;;5056283;28;20102;-80
2023/04/05 09:19:52;;;;;;;1.70;1.55;;;;;;;;;;5055943;28;20471;-80
2023/04/05 09:22:18;;;;;;;2.85;1.83;;;;;;;;;;5056036;28;20105;-80
2023/04/05 09:24:45;;;;;;;3.58;1.70;;;;;;;;;;5073740;28;20099;-80
2023/04/05 09:27:18;;;;;;;2.10;1.60;;;;;;;;;;5056242;28;20434;-80
2023/04/05 09:29:48;;;;;;;1.63;1.50;;;;;;;;;;5055767;28;20028;-81
2023/04/05 09:32:15;;;;;;;1.42;1.33;;;;;;;;;;5055710;28;20031;-81
2023/04/05 09:34:41;;;;;;;2.83;1.65;;;;;;;;;;5056179;28;20028;-80
2023/04/05 09:37:13;;;;;;;1.52;1.38;;;;;;;;;;5073868;28;20033;-81
2023/04/05 09:39:39;;;;;;;2.95;1.60;;;;;;;;;;5055543;28;20082;-82
2023/04/05 09:42:06;;;;;;;4.05;1.60;;;;;;;;;;5039515;28;20054;-81
2023/04/05 09:45:01;;;;;;;2.50;1.80;;;;;;;;;;5038891;28;20031;-82
2023/04/05 09:47:33;;;;;;;1.85;1.45;;;;;;;;;;5055915;28;20021;-82
2023/04/05 09:50:05;;;;;;;1.48;1.38;;;;;;;;;;5056146;28;20463;-81
2023/04/05 09:52:31;;;;;;;4.72;1.77;;;;;;;;;;5039255;28;20052;-82
2023/04/05 09:54:59;;;;;;;2.33;1.67;;;;;;;;;;5038727;28;20053;-82
2023/04/05 09:57:26;;;;;;;1.48;1.38;;;;;;;;;;5073672;28;20048;-81
2023/04/05 09:59:52;;;;;;;1.48;1.30;;;;;;;;;;5055353;28;20107;-81
2023/04/05 10:02:17;;;;;;;2.45;1.65;;;;;;;;;;5039346;28;20029;-81
2023/04/05 10:04:45;;;;;;;1.90;1.50;;;;;;;;;;5038781;28;20032;-81
2023/04/05 10:07:12;;;;;;;2.67;1.67;;;;;;;;;;5073277;28;20024;-82
2023/04/05 10:09:39;;;;;;;1.52;1.42;;;;;;;;;;5055425;28;20024;-81
2023/04/05 10:12:06;;;;;;;1.98;1.27;;;;;;;;;;5073461;28;20036;-82
2023/04/05 10:14:31;;;;;;;1.52;1.30;;;;;;;;;;5055213;28;20028;-83
2023/04/05 10:17:09;;;;;;;2.38;1.30;;;;;;;;;;5073434;28;20414;-82
2023/04/05 10:19:40;;;;;;;4.70;1.40;;;;;;;;;;5055399;28;20549;-83
2023/04/05 10:22:10;;;;;;;1.40;1.30;;;;;;;;;;5039178;28;20055;-83
2023/04/05 10:24:51;;;;;;;1.83;1.48;;;;;;;;;;5038619;28;20043;-82
2023/04/05 10:27:21;;;;;;;3.22;1.58;;;;;;;;;;5038540;28;20105;-83
2023/04/05 10:29:57;;;;;;;5.45;1.65;;;;;;;;;;5054777;28;20116;-84
2023/04/05 10:32:30;;;;;;;2.97;1.58;;;;;;;;;;5055062;28;20401;-83
2023/04/05 10:35:08;;;;;;;2.00;1.50;;;;;;;;;;5054515;28;20032;-84
2023/04/05 10:37:57;;;;;;;3.35;1.25;;;;;;;;;;5037684;28;20617;-80
2023/04/05 10:40:22;;;;;;;2.65;1.42;;;;;;;;;;5055763;28;20029;-81
2023/04/05 10:42:48;;;;;;;2.28;1.48;;;;;;;;;;5041593;28;20095;-82
2023/04/05 10:45:18;;;;;;;4.95;1.80;;;;;;;;;;5076113;28;20034;-81
2023/04/05 10:47:49;;;;;;;1.70;1.40;;;;;;;;;;5058545;28;20021;-81
2023/04/05 10:50:20;;;;;;;4.20;1.45;;;;;;;;;;5058141;28;20078;-81
2023/04/05 10:52:46;;;;;;;1.98;1.70;;;;;;;;;;5076083;28;20463;-79
2023/04/05 10:55:11;;;;;;;8.88;1.98;;;;;;;;;;5040967;28;20049;-81
2023/04/05 10:57:37;;;;;;;4.15;1.70;;;;;;;;;;5058423;28;20392;-81
2023/04/05 11:00:03;;;;;;;5.45;2.10;;;;;;;;;;5024691;28;20032;-81
2023/04/05 11:02:29;;;;;;;4.97;1.80;;;;;;;;;;5075637;28;20035;-82
2023/04/05 11:04:55;;;;;;;3.08;1.70;;;;;;;;;;5041341;28;20030;-79
2023/04/05 11:07:21;;;;;;;6.13;1.90;;;;;;;;;;5057871;28;20052;-81
2023/04/05 11:10:02;;;;;;;6.35;1.95;;;;;;;;;;5057709;28;20506;-81
2023/04/05 11:12:46;;;;;;;3.70;2.00;;;;;;;;;;5057671;28;20044;-81
2023/04/05 11:15:26;;;;;;;4.55;1.88;;;;;;;;;;5076083;28;20017;-81
2023/04/05 11:18:10;;;;;;;4.78;1.92;;;;;;;;;;5075592;28;20024;-81
2023/04/05 11:20:46;;;;;;;2.83;1.93;;;;;;;;;;5076562;28;20132;-81
2023/04/05 11:23:17;;;;;;;7.05;1.80;;;;;;;;;;5057498;28;20107;-81
2023/04/05 11:25:53;;;;;;;3.13;1.80;;;;;;;;;;5057555;28;20079;-81
2023/04/05 11:28:29;;;;;;;3.70;1.70;;;;;;;;;;5057213;28;20400;-81
2023/04/05 11:30:58;;;;;;;2.72;1.80;;;;;;;;;;5057771;28;20024;-81
2023/04/05 11:33:38;;;;;;;2.97;1.70;;;;;;;;;;5040977;28;20124;-81
2023/04/05 11:36:04;;;;;;;3.05;1.50;;;;;;;;;;5057403;28;20024;-81
2023/04/05 11:38:30;;;;;;;2.55;1.75;;;;;;;;;;5040611;28;20029;-81
2023/04/05 11:41:19;;;;;;;3.42;1.52;;;;;;;;;;5057420;28;20037;-81
2023/04/05 11:43:50;;;;;;;1.63;1.52;;;;;;;;;;5041007;28;20356;-81
2023/04/05 11:46:15;;;;;;;2.88;1.52;;;;;;;;;;5057459;28;20517;-82
2023/04/05 11:48:41;;;;;;;2.28;1.40;;;;;;;;;;5057358;28;20032;-81
2023/04/05 11:51:08;;;;;;;3.65;1.52;;;;;;;;;;5039124;28;20245;-81
2023/04/05 11:53:34;;;;;;;3.78;1.70;;;;;;;;;;5056873;28;20082;-81
2023/04/05 11:56:11;;;;;;;9.07;1.80;;;;;;;;;;5056626;28;20415;-82
2023/04/05 11:58:37;;;;;;;2.50;1.38;;;;;;;;;;5074711;28;20059;-82
2023/04/05 12:01:05;;;;;;;1.73;1.40;;;;;;;;;;5040127;28;20067;-82
2023/04/05 12:03:31;;;;;;;2.78;1.50;;;;;;;;;;5040862;28;20051;-82
2023/04/05 12:05:58;;;;;;;2.58;1.65;;;;;;;;;;5057908;28;20479;-82
2023/04/05 12:08:49;;;;;;;4.60;1.38;;;;;;;;;;5040582;28;20115;-82
2023/04/05 12:11:15;;;;;;;1.67;1.27;;;;;;;;;;5041171;28;20103;-82
2023/04/05 12:13:41;;;;;;;4.53;1.50;;;;;;;;;;5057744;28;20107;-83
2023/04/05 12:16:08;;;;;;;1.98;1.33;;;;;;;;;;5057776;28;20158;-82
2023/04/05 12:18:37;;;;;;;1.25;1.13;;;;;;;;;;5057469;28;20032;-82
2023/04/05 12:21:07;;;;;;;2.47;1.40;;;;;;;;;;5057286;28;20031;-82
2023/04/05 12:23:33;;;;;;;1.92;1.42;;;;;;;;;;5057340;28;20105;-82
2023/04/05 12:25:59;;;;;;;3.33;2.03;;;;;;;;;;5040740;28;20059;-82
2023/04/05 12:28:24;;;;;;;3.13;1.40;;;;;;;;;;5075458;28;20033;-85
2023/04/05 12:30:51;;;;;;;3.30;2.05;;;;;;;;;;5040513;28;20052;-83
2023/04/05 12:33:29;;;;;;;1.92;1.55;;;;;;;;;;5074934;28;20054;-81
2023/04/05 12:35:55;;;;;;;2.85;1.38;;;;;;;;;;5040589;28;20493;-83
2023/04/05 12:38:26;;;;;;;2.97;1.35;;;;;;;;;;5040313;28;20039;-81
2023/04/05 12:40:51;;;;;;;2.95;1.67;;;;;;;;;;5074866;28;20028;-81
2023/04/05 12:43:18;;;;;;;4.72;1.65;;;;;;;;;;5040168;28;20043;-81
2023/04/05 12:45:45;;;;;;;2.05;1.55;;;;;;;;;;5040264;28;20024;-82
2023/04/05 12:48:18;;;;;;;3.92;1.73;;;;;;;;;;5056903;28;20063;-82
2023/04/05 12:50:47;;;;;;;;;;;;;;;;;;5057020;28;20024;-84
2023/04/05 12:53:19;;;;;;;5.38;1.70;;;;;;;;;;5040145;28;19966;-82
2023/04/05 12:55:48;;;;;;;4.35;1.55;;;;;;;;;;5056475;28;20056;-84
2023/04/05 12:58:13;;;;;;;2.92;1.58;;;;;;;;;;5056975;28;20103;-81
2023/04/05 13:00:39;;;;;;;7.28;1.80;;;;;;;;;;5056851;28;20559;-83
2023/04/05 13:03:05;;;;;;;2.88;1.55;;;;;;;;;;5039716;28;20395;-87
2023/04/05 13:05:30;;;;;;;3.92;1.50;;;;;;;;;;5039982;28;20032;-83
2023/04/05 13:07:57;;;;;;;3.17;1.75;;;;;;;;;;5056077;28;20430;-80
2023/04/05 13:10:23;;;;;;;3.70;1.50;;;;;;;;;;5056276;28;20082;-78
2023/04/05 13:12:49;;;;;;;3.15;1.50;;;;;;;;;;5039380;28;20107;-79
2023/04/05 13:15:15;;;;;;;3.40;1.85;;;;;;;;;;5039630;28;20040;-80
2023/04/05 13:17:42;;;;;;;4.07;1.30;;;;;;;;;;5039440;28;20079;-81
2023/04/05 13:20:08;;;;;;;2.00;1.30;;;;;;;;;;5056165;28;20086;-80
2023/04/05 13:22:34;;;;;;;2.97;1.30;;;;;;;;;;5056032;28;20387;-81
2023/04/05 13:24:59;;;;;;;3.53;1.80;;;;;;;;;;5039145;28;20035;-80
2023/04/05 13:27:24;;;;;;;4.57;1.63;;;;;;;;;;5039335;28;20471;-80
2023/04/05 13:29:50;;;;;;;2.78;1.45;;;;;;;;;;5039139;28;20025;-80
2023/04/05 13:32:15;;;;;;;1.38;1.13;;;;;;;;;;5056138;28;20114;-81
2023/04/05 13:34:41;;;;;;;2.50;1.40;;;;;;;;;;5055716;28;20115;-80
2023/04/05 13:37:06;;;;;;;1.30;1.15;;;;;;;;;;5073861;28;20029;-81
2023/04/05 13:39:32;;;;;;;1.88;1.30;;;;;;;;;;5055393;28;20032;-80
2023/04/05 13:41:57;;;;;;;1.40;1.10;;;;;;;;;;5055889;28;20068;-81
2023/04/05 13:44:23;;;;;;;2.35;1.73;;;;;;;;;;5055863;28;20036;-80
2023/04/05 13:46:48;;;;;;;2.35;1.20;;;;;;;;;;5056165;28;20032;-80
2023/04/05 13:49:14;;;;;;;2.35;1.33;;;;;;;;;;5073766;28;20075;-81
2023/04/05 13:51:42;;;;;;;1.80;1.33;;;;;;;;;;5054910;28;20039;-80
2023/04/05 13:54:10;;;;;;;2.67;1.30;;;;;;;;;;5055909;28;20044;-80
2023/04/05 13:56:35;;;;;;;2.50;1.30;;;;;;;;;;5073056;28;20140;-80
2023/04/05 13:59:01;;;;;;;1.42;1.20;;;;;;;;;;5054478;28;20135;-80
2023/04/05 14:01:26;;;;;;;1.50;1.10;;;;;;;;;;5054911;28;20032;-79
2023/04/05 14:03:51;;;;;;;2.38;1.30;;;;;;;;;;5054614;28;20025;-80
2023/04/05 14:06:17;;;;;;;2.17;1.52;;;;;;;;;;5055544;28;20387;-80
2023/04/05 14:08:43;;;;;;;2.28;1.35;;;;;;;;;;5038775;28;20029;-79
2023/04/05 14:11:08;;;;;;;4.93;1.35;;;;;;;;;;5049639;28;20044;-80
2023/04/05 14:13:34;;;;;;;1.73;1.23;;;;;;;;;;5049529;28;20029;-80
2023/04/05 14:15:59;;;;;;;2.03;1.50;;;;;;;;;;5048979;28;20207;-80
2023/04/05 14:18:25;;;;;;;2.30;1.10;;;;;;;;;;5067473;28;20383;-80
2023/04/05 14:20:51;;;;;;;3.38;1.20;;;;;;;;;;5067436;28;20033;-80
2023/04/05 14:23:17;;;;;;;2.67;1.30;;;;;;;;;;5049310;28;20035;-83
2023/04/05 14:25:42;;;;;;;1.85;1.17;;;;;;;;;;5032395;28;20028;-80
2023/04/05 14:28:08;;;;;;;1.42;1.27;;;;;;;;;;5049105;28;20075;-80
2023/04/05 14:30:33;;;;;;;3.60;1.40;;;;;;;;;;5055082;28;20107;-80
2023/04/05 14:32:58;;;;;;;1.80;1.42;;;;;;;;;;5055243;28;20471;-81
2023/04/05 14:35:24;;;;;;;2.70;1.50;;;;;;;;;;5073175;28;20045;-81
2023/04/05 14:37:49;;;;;;;1.65;1.20;;;;;;;;;;5055060;28;20028;-82
2023/04/05 14:40:15;;;;;;;1.50;1.40;;;;;;;;;;5072820;28;20043;-81
2023/04/05 14:42:40;;;;;;;2.88;1.80;;;;;;;;;;5055286;28;20079;-84
2023/04/05 14:45:06;;;;;;;2.30;1.40;;;;;;;;;;5055157;28;20033;-82